sensor_id;sensor_type;location;lat;lon;timestamp;P1;durP1;ratioP1;P2;durP2;ratioP2
42978;SDS011;28616;44.746;19.678;2022-08-11T00:01:22;13.85;;;8.48;;
42978;SDS011;28616;44.746;19.678;2022-08-11T00:03:54;13.13;;;8.48;;
42978;SDS011;28616;44.746;19.678;2022-08-11T00:06:25;15.85;;;9.13;;
42978;SDS011;28616;44.746;19.678;2022-08-11T00:09:03;12.93;;;8.82;;
42978;SDS011;28616;44.746;19.678;2022-08-11T00:11:38;15.52;;;8.75;;
42978;SDS011;28616;44.746;19.678;2022-08-11T00:14:24;14.52;;;8.50;;
42978;SDS011;28616;44.746;19.678;2022-08-11T00:19:26;14.02;;;8.50;;
42978;SDS011;28616;44.746;19.678;2022-08-11T00:22:03;11.00;;;7.53;;
42978;SDS011;28616;44.746;19.678;2022-08-11T00:24:31;13.80;;;7.45;;
42978;SDS011;28616;44.746;19.678;2022-08-11T00:26:59;11.25;;;7.82;;
42978;SDS011;28616;44.746;19.678;2022-08-11T00:29:25;13.18;;;8.57;;
42978;SDS011;28616;44.746;19.678;2022-08-11T00:31:52;9.77;;;8.25;;
42978;SDS011;28616;44.746;19.678;2022-08-11T00:34:24;10.90;;;7.90;;
42978;SDS011;28616;44.746;19.678;2022-08-11T00:36:53;9.75;;;8.32;;
42978;SDS011;28616;44.746;19.678;2022-08-11T00:39:24;11.35;;;8.10;;
42978;SDS011;28616;44.746;19.678;2022-08-11T00:41:58;13.75;;;8.43;;
42978;SDS011;28616;44.746;19.678;2022-08-11T00:50:02;14.48;;;8.00;;
42978;SDS011;28616;44.746;19.678;2022-08-11T00:55:42;17.13;;;8.07;;
42978;SDS011;28616;44.746;19.678;2022-08-11T01:21:13;13.85;;;8.57;;
42978;SDS011;28616;44.746;19.678;2022-08-11T01:30:05;15.07;;;8.13;;
42978;SDS011;28616;44.746;19.678;2022-08-11T01:41:40;13.52;;;8.77;;
42978;SDS011;28616;44.746;19.678;2022-08-11T02:23:48;19.20;;;9.90;;
42978;SDS011;28616;44.746;19.678;2022-08-11T02:26:25;15.30;;;9.80;;
42978;SDS011;28616;44.746;19.678;2022-08-11T02:40:27;14.18;;;10.13;;
42978;SDS011;28616;44.746;19.678;2022-08-11T02:43:21;17.27;;;9.38;;
42978;SDS011;28616;44.746;19.678;2022-08-11T02:46:17;21.77;;;9.30;;
42978;SDS011;28616;44.746;19.678;2022-08-11T02:57:08;13.80;;;9.50;;
42978;SDS011;28616;44.746;19.678;2022-08-11T03:15:48;14.43;;;9.70;;
42978;SDS011;28616;44.746;19.678;2022-08-11T03:22:07;11.82;;;8.82;;
42978;SDS011;28616;44.746;19.678;2022-08-11T03:30:06;13.90;;;8.40;;
42978;SDS011;28616;44.746;19.678;2022-08-11T03:38:43;16.10;;;9.52;;
42978;SDS011;28616;44.746;19.678;2022-08-11T03:53:12;16.23;;;8.68;;
42978;SDS011;28616;44.746;19.678;2022-08-11T04:21:08;18.35;;;8.50;;
42978;SDS011;28616;44.746;19.678;2022-08-11T04:27:00;14.50;;;8.45;;
42978;SDS011;28616;44.746;19.678;2022-08-11T04:37:42;13.40;;;7.85;;
42978;SDS011;28616;44.746;19.678;2022-08-11T05:13:04;9.98;;;7.10;;
42978;SDS011;28616;44.746;19.678;2022-08-11T05:15:56;15.32;;;7.25;;
42978;SDS011;28616;44.746;19.678;2022-08-11T05:18:45;16.52;;;6.97;;
42978;SDS011;28616;44.746;19.678;2022-08-11T05:21:35;11.45;;;7.15;;
42978;SDS011;28616;44.746;19.678;2022-08-11T05:24:24;15.68;;;7.65;;
42978;SDS011;28616;44.746;19.678;2022-08-11T05:27:14;13.23;;;7.13;;
42978;SDS011;28616;44.746;19.678;2022-08-11T05:30:03;9.90;;;6.85;;
42978;SDS011;28616;44.746;19.678;2022-08-11T05:33:09;16.27;;;6.63;;
42978;SDS011;28616;44.746;19.678;2022-08-11T05:38:38;13.07;;;6.20;;
42978;SDS011;28616;44.746;19.678;2022-08-11T05:41:23;13.13;;;5.72;;
42978;SDS011;28616;44.746;19.678;2022-08-11T05:44:09;10.30;;;5.88;;
42978;SDS011;28616;44.746;19.678;2022-08-11T05:47:03;12.32;;;6.03;;
42978;SDS011;28616;44.746;19.678;2022-08-11T05:49:48;18.10;;;6.22;;
42978;SDS011;28616;44.746;19.678;2022-08-11T05:52:34;13.20;;;6.25;;
42978;SDS011;28616;44.746;19.678;2022-08-11T05:55:19;11.30;;;5.53;;
42978;SDS011;28616;44.746;19.678;2022-08-11T05:58:06;9.95;;;5.68;;
42978;SDS011;28616;44.746;19.678;2022-08-11T06:00:42;16.25;;;6.18;;
42978;SDS011;28616;44.746;19.678;2022-08-11T06:03:10;12.15;;;5.60;;
42978;SDS011;28616;44.746;19.678;2022-08-11T06:05:46;12.57;;;5.85;;
42978;SDS011;28616;44.746;19.678;2022-08-11T06:08:12;12.93;;;5.90;;
42978;SDS011;28616;44.746;19.678;2022-08-11T06:10:42;10.52;;;6.07;;
42978;SDS011;28616;44.746;19.678;2022-08-11T06:13:09;15.25;;;5.85;;
42978;SDS011;28616;44.746;19.678;2022-08-11T06:15:47;10.40;;;6.50;;
42978;SDS011;28616;44.746;19.678;2022-08-11T06:18:14;9.40;;;5.88;;
42978;SDS011;28616;44.746;19.678;2022-08-11T06:20:48;12.52;;;5.60;;
42978;SDS011;28616;44.746;19.678;2022-08-11T06:23:15;11.27;;;5.30;;
42978;SDS011;28616;44.746;19.678;2022-08-11T06:25:43;12.82;;;6.88;;
42978;SDS011;28616;44.746;19.678;2022-08-11T06:28:10;10.95;;;5.20;;
42978;SDS011;28616;44.746;19.678;2022-08-11T06:30:40;11.35;;;5.55;;
42978;SDS011;28616;44.746;19.678;2022-08-11T06:33:20;15.85;;;5.68;;
42978;SDS011;28616;44.746;19.678;2022-08-11T06:46:40;10.27;;;4.90;;
42978;SDS011;28616;44.746;19.678;2022-08-11T06:49:08;10.13;;;5.80;;
42978;SDS011;28616;44.746;19.678;2022-08-11T06:51:54;14.05;;;5.70;;
42978;SDS011;28616;44.746;19.678;2022-08-11T06:54:33;10.55;;;5.05;;
42978;SDS011;28616;44.746;19.678;2022-08-11T06:57:01;9.30;;;6.63;;
42978;SDS011;28616;44.746;19.678;2022-08-11T06:59:49;11.63;;;6.05;;
42978;SDS011;28616;44.746;19.678;2022-08-11T07:05:13;22.05;;;5.53;;
42978;SDS011;28616;44.746;19.678;2022-08-11T07:13:33;9.27;;;5.10;;
42978;SDS011;28616;44.746;19.678;2022-08-11T07:16:22;9.05;;;4.88;;
42978;SDS011;28616;44.746;19.678;2022-08-11T07:18:53;11.15;;;5.07;;
42978;SDS011;28616;44.746;19.678;2022-08-11T07:21:39;7.40;;;4.28;;
42978;SDS011;28616;44.746;19.678;2022-08-11T07:24:29;12.52;;;5.38;;
42978;SDS011;28616;44.746;19.678;2022-08-11T07:27:19;7.85;;;5.10;;
42978;SDS011;28616;44.746;19.678;2022-08-11T07:30:06;8.27;;;5.35;;
42978;SDS011;28616;44.746;19.678;2022-08-11T07:32:35;13.70;;;6.05;;
42978;SDS011;28616;44.746;19.678;2022-08-11T07:35:10;7.93;;;5.53;;
42978;SDS011;28616;44.746;19.678;2022-08-11T07:37:38;7.93;;;6.03;;
42978;SDS011;28616;44.746;19.678;2022-08-11T07:40:06;10.25;;;5.72;;
42978;SDS011;28616;44.746;19.678;2022-08-11T07:42:32;12.93;;;6.30;;
42978;SDS011;28616;44.746;19.678;2022-08-11T07:45:04;9.07;;;6.47;;
42978;SDS011;28616;44.746;19.678;2022-08-11T07:47:49;15.70;;;6.60;;
42978;SDS011;28616;44.746;19.678;2022-08-11T07:50:39;9.60;;;6.28;;
42978;SDS011;28616;44.746;19.678;2022-08-11T07:53:24;11.98;;;6.13;;
42978;SDS011;28616;44.746;19.678;2022-08-11T07:55:52;10.27;;;6.50;;
42978;SDS011;28616;44.746;19.678;2022-08-11T07:58:22;11.68;;;6.93;;
42978;SDS011;28616;44.746;19.678;2022-08-11T08:01:07;16.88;;;7.15;;
42978;SDS011;28616;44.746;19.678;2022-08-11T08:03:52;10.27;;;6.85;;
42978;SDS011;28616;44.746;19.678;2022-08-11T08:06:37;9.95;;;6.55;;
42978;SDS011;28616;44.746;19.678;2022-08-11T08:09:22;15.20;;;6.50;;
42978;SDS011;28616;44.746;19.678;2022-08-11T08:12:08;17.67;;;7.65;;
42978;SDS011;28616;44.746;19.678;2022-08-11T08:14:54;7.55;;;6.72;;
42978;SDS011;28616;44.746;19.678;2022-08-11T08:17:42;9.73;;;6.35;;
42978;SDS011;28616;44.746;19.678;2022-08-11T08:20:44;13.60;;;6.85;;
42978;SDS011;28616;44.746;19.678;2022-08-11T08:23:08;9.05;;;7.80;;
42978;SDS011;28616;44.746;19.678;2022-08-11T08:25:37;10.50;;;5.60;;
42978;SDS011;28616;44.746;19.678;2022-08-11T08:28:05;6.75;;;6.15;;
42978;SDS011;28616;44.746;19.678;2022-08-11T08:30:32;10.85;;;7.03;;
42978;SDS011;28616;44.746;19.678;2022-08-11T08:33:26;12.10;;;10.07;;
42978;SDS011;28616;44.746;19.678;2022-08-11T08:35:56;15.57;;;8.07;;
42978;SDS011;28616;44.746;19.678;2022-08-11T08:38:48;12.35;;;9.10;;
42978;SDS011;28616;44.746;19.678;2022-08-11T08:41:20;10.95;;;9.80;;
42978;SDS011;28616;44.746;19.678;2022-08-11T08:43:47;16.42;;;9.60;;
42978;SDS011;28616;44.746;19.678;2022-08-11T08:46:17;10.60;;;8.80;;
42978;SDS011;28616;44.746;19.678;2022-08-11T08:48:44;13.50;;;9.30;;
42978;SDS011;28616;44.746;19.678;2022-08-11T08:51:11;10.30;;;8.93;;
42978;SDS011;28616;44.746;19.678;2022-08-11T08:53:59;16.08;;;9.25;;
42978;SDS011;28616;44.746;19.678;2022-08-11T08:56:26;13.80;;;8.60;;
42978;SDS011;28616;44.746;19.678;2022-08-11T08:58:53;9.18;;;8.38;;
42978;SDS011;28616;44.746;19.678;2022-08-11T09:01:20;9.43;;;8.15;;
42978;SDS011;28616;44.746;19.678;2022-08-11T09:03:49;8.70;;;7.90;;
42978;SDS011;28616;44.746;19.678;2022-08-11T09:06:15;9.27;;;8.07;;
42978;SDS011;28616;44.746;19.678;2022-08-11T09:08:42;8.73;;;7.97;;
42978;SDS011;28616;44.746;19.678;2022-08-11T09:11:09;9.20;;;8.30;;
42978;SDS011;28616;44.746;19.678;2022-08-11T09:13:54;10.20;;;8.35;;
42978;SDS011;28616;44.746;19.678;2022-08-11T09:16:21;9.93;;;8.35;;
42978;SDS011;28616;44.746;19.678;2022-08-11T09:18:48;8.43;;;7.70;;
42978;SDS011;28616;44.746;19.678;2022-08-11T09:21:15;10.38;;;7.93;;
42978;SDS011;28616;44.746;19.678;2022-08-11T09:23:44;8.55;;;7.72;;
42978;SDS011;28616;44.746;19.678;2022-08-11T09:26:30;9.70;;;8.88;;
42978;SDS011;28616;44.746;19.678;2022-08-11T09:29:15;8.35;;;7.75;;
42978;SDS011;28616;44.746;19.678;2022-08-11T09:31:41;9.50;;;8.70;;
42978;SDS011;28616;44.746;19.678;2022-08-11T09:34:08;9.32;;;8.45;;
42978;SDS011;28616;44.746;19.678;2022-08-11T09:36:36;9.43;;;7.85;;
42978;SDS011;28616;44.746;19.678;2022-08-11T09:39:21;8.82;;;7.90;;
42978;SDS011;28616;44.746;19.678;2022-08-11T09:42:06;7.88;;;7.38;;
42978;SDS011;28616;44.746;19.678;2022-08-11T09:44:33;8.13;;;7.53;;
42978;SDS011;28616;44.746;19.678;2022-08-11T09:47:18;8.68;;;7.43;;
42978;SDS011;28616;44.746;19.678;2022-08-11T09:49:45;9.27;;;8.43;;
42978;SDS011;28616;44.746;19.678;2022-08-11T09:52:13;9.25;;;8.18;;
42978;SDS011;28616;44.746;19.678;2022-08-11T09:54:40;8.52;;;7.63;;
42978;SDS011;28616;44.746;19.678;2022-08-11T09:57:07;37.22;;;10.35;;
42978;SDS011;28616;44.746;19.678;2022-08-11T09:59:52;11.35;;;6.65;;
42978;SDS011;28616;44.746;19.678;2022-08-11T10:02:26;8.98;;;6.63;;
42978;SDS011;28616;44.746;19.678;2022-08-11T10:04:54;7.63;;;5.35;;
42978;SDS011;28616;44.746;19.678;2022-08-11T10:07:44;7.38;;;6.72;;
42978;SDS011;28616;44.746;19.678;2022-08-11T10:10:15;7.78;;;7.20;;
42978;SDS011;28616;44.746;19.678;2022-08-11T10:12:47;7.68;;;7.07;;
42978;SDS011;28616;44.746;19.678;2022-08-11T10:15:15;6.05;;;5.50;;
42978;SDS011;28616;44.746;19.678;2022-08-11T10:18:08;7.47;;;5.90;;
42978;SDS011;28616;44.746;19.678;2022-08-11T10:21:00;7.70;;;6.82;;
42978;SDS011;28616;44.746;19.678;2022-08-11T10:23:29;8.27;;;7.50;;
42978;SDS011;28616;44.746;19.678;2022-08-11T10:26:34;27.75;;;8.45;;
42978;SDS011;28616;44.746;19.678;2022-08-11T10:29:23;8.20;;;7.38;;
42978;SDS011;28616;44.746;19.678;2022-08-11T10:32:08;9.52;;;7.80;;
42978;SDS011;28616;44.746;19.678;2022-08-11T10:34:53;8.48;;;7.70;;
42978;SDS011;28616;44.746;19.678;2022-08-11T10:37:20;9.52;;;8.77;;
42978;SDS011;28616;44.746;19.678;2022-08-11T10:39:48;9.68;;;8.77;;
42978;SDS011;28616;44.746;19.678;2022-08-11T10:42:15;8.70;;;8.00;;
42978;SDS011;28616;44.746;19.678;2022-08-11T10:45:00;8.90;;;8.15;;
42978;SDS011;28616;44.746;19.678;2022-08-11T10:47:28;9.10;;;8.43;;
42978;SDS011;28616;44.746;19.678;2022-08-11T10:50:09;9.82;;;8.90;;
42978;SDS011;28616;44.746;19.678;2022-08-11T10:55:40;9.20;;;8.48;;
42978;SDS011;28616;44.746;19.678;2022-08-11T10:58:26;9.30;;;8.60;;
42978;SDS011;28616;44.746;19.678;2022-08-11T11:01:11;9.32;;;8.52;;
42978;SDS011;28616;44.746;19.678;2022-08-11T11:03:38;9.20;;;8.23;;
42978;SDS011;28616;44.746;19.678;2022-08-11T11:08:36;11.55;;;9.05;;
42978;SDS011;28616;44.746;19.678;2022-08-11T11:11:25;10.15;;;9.30;;
42978;SDS011;28616;44.746;19.678;2022-08-11T11:14:14;19.80;;;14.63;;
42978;SDS011;28616;44.746;19.678;2022-08-11T11:16:59;10.68;;;8.57;;
42978;SDS011;28616;44.746;19.678;2022-08-11T11:19:45;9.68;;;8.60;;
42978;SDS011;28616;44.746;19.678;2022-08-11T11:22:11;10.05;;;8.77;;
42978;SDS011;28616;44.746;19.678;2022-08-11T11:25:09;9.02;;;8.07;;
42978;SDS011;28616;44.746;19.678;2022-08-11T11:30:15;9.50;;;8.88;;
42978;SDS011;28616;44.746;19.678;2022-08-11T11:37:44;9.63;;;7.70;;
42978;SDS011;28616;44.746;19.678;2022-08-11T11:40:15;9.50;;;8.60;;
42978;SDS011;28616;44.746;19.678;2022-08-11T11:42:45;8.70;;;7.97;;
42978;SDS011;28616;44.746;19.678;2022-08-11T11:45:16;9.90;;;8.95;;
42978;SDS011;28616;44.746;19.678;2022-08-11T11:47:43;9.40;;;8.70;;
42978;SDS011;28616;44.746;19.678;2022-08-11T11:50:09;11.80;;;9.20;;
42978;SDS011;28616;44.746;19.678;2022-08-11T11:52:37;9.95;;;9.15;;
42978;SDS011;28616;44.746;19.678;2022-08-11T11:55:04;10.93;;;9.27;;
42978;SDS011;28616;44.746;19.678;2022-08-11T11:57:30;28.63;;;21.33;;
42978;SDS011;28616;44.746;19.678;2022-08-11T12:00:16;9.65;;;8.75;;
42978;SDS011;28616;44.746;19.678;2022-08-11T12:03:03;10.23;;;8.63;;
42978;SDS011;28616;44.746;19.678;2022-08-11T12:05:32;10.35;;;9.18;;
42978;SDS011;28616;44.746;19.678;2022-08-11T12:07:59;8.18;;;7.57;;
42978;SDS011;28616;44.746;19.678;2022-08-11T12:10:43;9.43;;;8.40;;
42978;SDS011;28616;44.746;19.678;2022-08-11T12:13:10;8.77;;;7.90;;
42978;SDS011;28616;44.746;19.678;2022-08-11T12:15:56;9.57;;;8.10;;
42978;SDS011;28616;44.746;19.678;2022-08-11T12:18:29;26.80;;;23.90;;
42978;SDS011;28616;44.746;19.678;2022-08-11T12:20:56;46.80;;;30.60;;
42978;SDS011;28616;44.746;19.678;2022-08-11T12:23:22;48.22;;;39.15;;
42978;SDS011;28616;44.746;19.678;2022-08-11T12:26:07;28.38;;;21.00;;
42978;SDS011;28616;44.746;19.678;2022-08-11T12:28:53;107.75;;;60.28;;
42978;SDS011;28616;44.746;19.678;2022-08-11T12:31:22;25.55;;;20.10;;
42978;SDS011;28616;44.746;19.678;2022-08-11T12:33:49;30.80;;;26.52;;
42978;SDS011;28616;44.746;19.678;2022-08-11T12:36:16;26.80;;;17.23;;
42978;SDS011;28616;44.746;19.678;2022-08-11T12:38:44;131.48;;;43.25;;
42978;SDS011;28616;44.746;19.678;2022-08-11T12:41:11;51.90;;;35.83;;
42978;SDS011;28616;44.746;19.678;2022-08-11T12:43:56;107.15;;;32.05;;
42978;SDS011;28616;44.746;19.678;2022-08-11T12:46:43;113.93;;;31.25;;
42978;SDS011;28616;44.746;19.678;2022-08-11T12:49:17;95.00;;;34.15;;
42978;SDS011;28616;44.746;19.678;2022-08-11T12:52:05;103.95;;;37.70;;
42978;SDS011;28616;44.746;19.678;2022-08-11T12:57:02;136.65;;;46.78;;
42978;SDS011;28616;44.746;19.678;2022-08-11T12:59:50;99.70;;;30.50;;
42978;SDS011;28616;44.746;19.678;2022-08-11T13:02:35;149.15;;;43.67;;
42978;SDS011;28616;44.746;19.678;2022-08-11T13:05:20;71.43;;;39.28;;
42978;SDS011;28616;44.746;19.678;2022-08-11T13:07:46;53.70;;;22.85;;
42978;SDS011;28616;44.746;19.678;2022-08-11T13:10:14;42.95;;;28.08;;
42978;SDS011;28616;44.746;19.678;2022-08-11T13:13:05;110.10;;;36.70;;
42978;SDS011;28616;44.746;19.678;2022-08-11T13:15:32;227.48;;;58.00;;
42978;SDS011;28616;44.746;19.678;2022-08-11T13:18:00;88.68;;;27.65;;
42978;SDS011;28616;44.746;19.678;2022-08-11T13:20:27;50.10;;;38.03;;
42978;SDS011;28616;44.746;19.678;2022-08-11T13:22:54;168.95;;;44.47;;
42978;SDS011;28616;44.746;19.678;2022-08-11T13:25:22;112.30;;;32.65;;
42978;SDS011;28616;44.746;19.678;2022-08-11T13:27:50;97.05;;;30.08;;
42978;SDS011;28616;44.746;19.678;2022-08-11T13:30:16;73.25;;;36.13;;
42978;SDS011;28616;44.746;19.678;2022-08-11T13:33:02;115.10;;;32.80;;
42978;SDS011;28616;44.746;19.678;2022-08-11T13:35:29;34.28;;;20.70;;
42978;SDS011;28616;44.746;19.678;2022-08-11T13:37:56;41.33;;;28.65;;
42978;SDS011;28616;44.746;19.678;2022-08-11T13:40:23;49.65;;;35.47;;
42978;SDS011;28616;44.746;19.678;2022-08-11T13:42:51;64.82;;;38.85;;
42978;SDS011;28616;44.746;19.678;2022-08-11T13:45:18;140.73;;;76.57;;
42978;SDS011;28616;44.746;19.678;2022-08-11T13:47:47;135.93;;;45.08;;
42978;SDS011;28616;44.746;19.678;2022-08-11T13:50:14;99.53;;;31.60;;
42978;SDS011;28616;44.746;19.678;2022-08-11T13:52:40;122.07;;;38.28;;
42978;SDS011;28616;44.746;19.678;2022-08-11T13:55:08;7.47;;;6.80;;
42978;SDS011;28616;44.746;19.678;2022-08-11T13:57:35;37.78;;;28.08;;
42978;SDS011;28616;44.746;19.678;2022-08-11T14:00:03;41.15;;;25.92;;
42978;SDS011;28616;44.746;19.678;2022-08-11T14:02:37;54.40;;;40.17;;
42978;SDS011;28616;44.746;19.678;2022-08-11T14:05:14;207.07;;;67.45;;
42978;SDS011;28616;44.746;19.678;2022-08-11T14:07:51;21.95;;;14.48;;
42978;SDS011;28616;44.746;19.678;2022-08-11T14:10:19;119.75;;;31.65;;
42978;SDS011;28616;44.746;19.678;2022-08-11T14:12:47;104.50;;;25.73;;
42978;SDS011;28616;44.746;19.678;2022-08-11T14:15:34;121.90;;;35.35;;
42978;SDS011;28616;44.746;19.678;2022-08-11T14:18:05;34.00;;;26.95;;
42978;SDS011;28616;44.746;19.678;2022-08-11T14:20:32;30.77;;;22.50;;
42978;SDS011;28616;44.746;19.678;2022-08-11T14:23:18;91.32;;;50.92;;
42978;SDS011;28616;44.746;19.678;2022-08-11T14:25:47;147.70;;;45.03;;
42978;SDS011;28616;44.746;19.678;2022-08-11T14:28:32;52.80;;;26.38;;
42978;SDS011;28616;44.746;19.678;2022-08-11T14:30:59;101.65;;;26.75;;
42978;SDS011;28616;44.746;19.678;2022-08-11T14:33:26;66.88;;;27.60;;
42978;SDS011;28616;44.746;19.678;2022-08-11T14:35:52;61.15;;;28.00;;
42978;SDS011;28616;44.746;19.678;2022-08-11T14:38:18;110.43;;;30.58;;
42978;SDS011;28616;44.746;19.678;2022-08-11T14:40:45;73.00;;;25.40;;
42978;SDS011;28616;44.746;19.678;2022-08-11T14:43:31;49.08;;;24.30;;
42978;SDS011;28616;44.746;19.678;2022-08-11T14:46:16;54.50;;;28.00;;
42978;SDS011;28616;44.746;19.678;2022-08-11T14:49:01;48.10;;;24.67;;
42978;SDS011;28616;44.746;19.678;2022-08-11T14:51:27;8.10;;;7.40;;
42978;SDS011;28616;44.746;19.678;2022-08-11T14:53:54;45.72;;;25.90;;
42978;SDS011;28616;44.746;19.678;2022-08-11T14:56:41;46.60;;;25.17;;
42978;SDS011;28616;44.746;19.678;2022-08-11T14:59:08;41.13;;;23.92;;
42978;SDS011;28616;44.746;19.678;2022-08-11T15:01:36;46.70;;;26.80;;
42978;SDS011;28616;44.746;19.678;2022-08-11T15:04:21;42.72;;;25.70;;
42978;SDS011;28616;44.746;19.678;2022-08-11T15:06:48;49.17;;;27.52;;
42978;SDS011;28616;44.746;19.678;2022-08-11T15:09:15;58.13;;;32.80;;
42978;SDS011;28616;44.746;19.678;2022-08-11T15:11:41;41.20;;;23.60;;
42978;SDS011;28616;44.746;19.678;2022-08-11T15:14:27;48.15;;;27.88;;
42978;SDS011;28616;44.746;19.678;2022-08-11T15:17:12;34.85;;;22.80;;
42978;SDS011;28616;44.746;19.678;2022-08-11T15:19:39;25.15;;;18.40;;
42978;SDS011;28616;44.746;19.678;2022-08-11T15:22:24;32.47;;;20.55;;
42978;SDS011;28616;44.746;19.678;2022-08-11T15:25:09;16.23;;;13.20;;
42978;SDS011;28616;44.746;19.678;2022-08-11T15:27:35;19.88;;;15.18;;
42978;SDS011;28616;44.746;19.678;2022-08-11T15:30:21;30.98;;;20.35;;
42978;SDS011;28616;44.746;19.678;2022-08-11T15:33:08;8.85;;;8.25;;
42978;SDS011;28616;44.746;19.678;2022-08-11T15:35:53;22.92;;;14.18;;
42978;SDS011;28616;44.746;19.678;2022-08-11T15:38:43;21.05;;;14.98;;
42978;SDS011;28616;44.746;19.678;2022-08-11T15:41:09;19.73;;;14.07;;
42978;SDS011;28616;44.746;19.678;2022-08-11T15:43:57;34.65;;;17.35;;
42978;SDS011;28616;44.746;19.678;2022-08-11T15:46:49;17.20;;;14.73;;
42978;SDS011;28616;44.746;19.678;2022-08-11T15:49:27;16.15;;;12.95;;
42978;SDS011;28616;44.746;19.678;2022-08-11T15:51:56;17.23;;;12.55;;
42978;SDS011;28616;44.746;19.678;2022-08-11T15:54:23;20.70;;;17.25;;
42978;SDS011;28616;44.746;19.678;2022-08-11T15:56:51;16.27;;;14.27;;
42978;SDS011;28616;44.746;19.678;2022-08-11T15:59:22;14.88;;;12.15;;
42978;SDS011;28616;44.746;19.678;2022-08-11T16:02:10;13.30;;;12.15;;
42978;SDS011;28616;44.746;19.678;2022-08-11T16:04:55;17.02;;;13.80;;
42978;SDS011;28616;44.746;19.678;2022-08-11T16:07:23;14.02;;;11.30;;
42978;SDS011;28616;44.746;19.678;2022-08-11T16:12:40;14.88;;;11.50;;
42978;SDS011;28616;44.746;19.678;2022-08-11T16:15:27;20.60;;;13.23;;
42978;SDS011;28616;44.746;19.678;2022-08-11T16:18:12;15.88;;;14.23;;
42978;SDS011;28616;44.746;19.678;2022-08-11T16:20:40;15.18;;;12.98;;
42978;SDS011;28616;44.746;19.678;2022-08-11T16:23:07;15.40;;;13.80;;
42978;SDS011;28616;44.746;19.678;2022-08-11T16:25:34;16.13;;;14.27;;
42978;SDS011;28616;44.746;19.678;2022-08-11T16:28:01;13.43;;;12.02;;
42978;SDS011;28616;44.746;19.678;2022-08-11T16:30:32;17.42;;;12.18;;
42978;SDS011;28616;44.746;19.678;2022-08-11T16:32:59;18.02;;;13.60;;
42978;SDS011;28616;44.746;19.678;2022-08-11T16:35:28;18.02;;;12.27;;
42978;SDS011;28616;44.746;19.678;2022-08-11T16:38:13;12.50;;;10.52;;
42978;SDS011;28616;44.746;19.678;2022-08-11T16:40:59;14.52;;;12.68;;
42978;SDS011;28616;44.746;19.678;2022-08-11T16:43:27;18.75;;;12.63;;
42978;SDS011;28616;44.746;19.678;2022-08-11T16:46:16;14.40;;;11.65;;
42978;SDS011;28616;44.746;19.678;2022-08-11T16:49:11;18.63;;;12.45;;
42978;SDS011;28616;44.746;19.678;2022-08-11T16:51:38;17.15;;;11.65;;
42978;SDS011;28616;44.746;19.678;2022-08-11T16:54:04;13.32;;;10.80;;
42978;SDS011;28616;44.746;19.678;2022-08-11T16:56:33;17.95;;;11.90;;
42978;SDS011;28616;44.746;19.678;2022-08-11T16:59:01;21.35;;;11.07;;
42978;SDS011;28616;44.746;19.678;2022-08-11T17:01:51;22.25;;;13.27;;
42978;SDS011;28616;44.746;19.678;2022-08-11T17:04:20;18.33;;;12.55;;
42978;SDS011;28616;44.746;19.678;2022-08-11T17:07:13;19.48;;;13.15;;
42978;SDS011;28616;44.746;19.678;2022-08-11T17:10:00;19.90;;;15.20;;
42978;SDS011;28616;44.746;19.678;2022-08-11T17:12:46;28.23;;;15.35;;
42978;SDS011;28616;44.746;19.678;2022-08-11T17:15:32;25.60;;;16.52;;
42978;SDS011;28616;44.746;19.678;2022-08-11T17:18:18;28.42;;;14.77;;
42978;SDS011;28616;44.746;19.678;2022-08-11T17:21:08;32.00;;;19.73;;
42978;SDS011;28616;44.746;19.678;2022-08-11T17:23:36;6.55;;;5.95;;
42978;SDS011;28616;44.746;19.678;2022-08-11T17:28:47;39.42;;;21.83;;
42978;SDS011;28616;44.746;19.678;2022-08-11T17:31:15;38.05;;;19.13;;
42978;SDS011;28616;44.746;19.678;2022-08-11T17:34:01;7.00;;;6.07;;
42978;SDS011;28616;44.746;19.678;2022-08-11T17:36:46;42.17;;;22.67;;
42978;SDS011;28616;44.746;19.678;2022-08-11T17:39:15;49.15;;;26.25;;
42978;SDS011;28616;44.746;19.678;2022-08-11T17:41:41;55.13;;;24.27;;
42978;SDS011;28616;44.746;19.678;2022-08-11T17:44:27;50.83;;;28.55;;
42978;SDS011;28616;44.746;19.678;2022-08-11T17:47:13;48.38;;;28.20;;
42978;SDS011;28616;44.746;19.678;2022-08-11T17:50:01;49.63;;;27.50;;
42978;SDS011;28616;44.746;19.678;2022-08-11T17:52:28;52.03;;;26.50;;
42978;SDS011;28616;44.746;19.678;2022-08-11T17:55:14;61.08;;;27.13;;
42978;SDS011;28616;44.746;19.678;2022-08-11T17:58:03;64.60;;;24.33;;
42978;SDS011;28616;44.746;19.678;2022-08-11T18:00:48;57.25;;;29.92;;
42978;SDS011;28616;44.746;19.678;2022-08-11T18:03:15;7.05;;;5.70;;
42978;SDS011;28616;44.746;19.678;2022-08-11T18:05:56;8.07;;;6.78;;
42978;SDS011;28616;44.746;19.678;2022-08-11T18:08:27;6.00;;;5.50;;
42978;SDS011;28616;44.746;19.678;2022-08-11T18:11:14;9.13;;;6.22;;
42978;SDS011;28616;44.746;19.678;2022-08-11T18:14:01;6.97;;;5.88;;
42978;SDS011;28616;44.746;19.678;2022-08-11T18:16:48;18.20;;;9.52;;
42978;SDS011;28616;44.746;19.678;2022-08-11T18:19:32;43.65;;;30.95;;
42978;SDS011;28616;44.746;19.678;2022-08-11T18:22:19;136.90;;;45.65;;
42978;SDS011;28616;44.746;19.678;2022-08-11T18:27:55;27.45;;;18.45;;
42978;SDS011;28616;44.746;19.678;2022-08-11T18:30:42;29.17;;;17.05;;
42978;SDS011;28616;44.746;19.678;2022-08-11T18:33:33;42.80;;;25.17;;
42978;SDS011;28616;44.746;19.678;2022-08-11T18:36:23;6.10;;;5.40;;
42978;SDS011;28616;44.746;19.678;2022-08-11T18:39:13;8.88;;;7.88;;
42978;SDS011;28616;44.746;19.678;2022-08-11T18:42:01;7.35;;;6.00;;
42978;SDS011;28616;44.746;19.678;2022-08-11T18:47:36;7.07;;;6.38;;
42978;SDS011;28616;44.746;19.678;2022-08-11T18:50:22;12.63;;;6.82;;
42978;SDS011;28616;44.746;19.678;2022-08-11T18:53:07;11.10;;;6.60;;
42978;SDS011;28616;44.746;19.678;2022-08-11T18:55:54;13.05;;;7.50;;
42978;SDS011;28616;44.746;19.678;2022-08-11T18:58:40;11.65;;;7.40;;
42978;SDS011;28616;44.746;19.678;2022-08-11T19:01:28;15.40;;;8.25;;
42978;SDS011;28616;44.746;19.678;2022-08-11T19:04:14;25.90;;;8.40;;
42978;SDS011;28616;44.746;19.678;2022-08-11T19:06:59;18.92;;;8.68;;
42978;SDS011;28616;44.746;19.678;2022-08-11T19:09:45;25.02;;;8.73;;
42978;SDS011;28616;44.746;19.678;2022-08-11T19:12:33;22.63;;;8.18;;
42978;SDS011;28616;44.746;19.678;2022-08-11T19:15:21;16.25;;;9.73;;
42978;SDS011;28616;44.746;19.678;2022-08-11T19:18:06;19.52;;;9.30;;
42978;SDS011;28616;44.746;19.678;2022-08-11T19:20:57;17.92;;;10.30;;
42978;SDS011;28616;44.746;19.678;2022-08-11T19:23:43;18.77;;;10.00;;
42978;SDS011;28616;44.746;19.678;2022-08-11T19:26:29;20.02;;;8.85;;
42978;SDS011;28616;44.746;19.678;2022-08-11T19:29:26;16.70;;;9.57;;
42978;SDS011;28616;44.746;19.678;2022-08-11T19:32:12;26.45;;;10.65;;
42978;SDS011;28616;44.746;19.678;2022-08-11T19:34:57;22.40;;;9.88;;
42978;SDS011;28616;44.746;19.678;2022-08-11T19:37:43;17.55;;;9.90;;
42978;SDS011;28616;44.746;19.678;2022-08-11T19:40:29;15.77;;;10.05;;
42978;SDS011;28616;44.746;19.678;2022-08-11T19:43:15;11.43;;;8.02;;
42978;SDS011;28616;44.746;19.678;2022-08-11T19:46:01;20.75;;;9.32;;